Penhold, Canada
Current Conditions -  °F | °C
As of 5:00 PM on Friday 28 Nov 2014 (Local Time) from CYQF Reporting Station
Blowing Snow Blowing Snow  
Wind Chill: -29°   Ceiling: 8200
Heat Index: -8°   Visibility: 8mi
Dew Point: -15°   Wind: 15mph
Humidity: 71%   Direction: 340°NNW
Pressure: 29.75"   Gusts: 23mph
Location:  52.13°N, 113.87°W
Report Text: CYQF 290000Z 34013G20KT 8SM DRSN BKN082 M22/M26 A2975 RMK AC7 /S02/ SLP160
Loading
Personal Weather Stations






























Interactive Weather Map New forecast layout! Learn more

10-Day Weather Forecast

Advertisements
Track Severe Weather on mobile